sensor_id;sensor_type;location;lat;lon;timestamp;P1;durP1;ratioP1;P2;durP2;ratioP2
13040;SDS011;6587;42.728;23.288;2023-02-03T00:00:47;4.53;;;3.37;;
13040;SDS011;6587;42.728;23.288;2023-02-03T00:03:14;5.37;;;3.90;;
13040;SDS011;6587;42.728;23.288;2023-02-03T00:05:40;8.80;;;4.60;;
13040;SDS011;6587;42.728;23.288;2023-02-03T00:08:09;7.50;;;4.50;;
13040;SDS011;6587;42.728;23.288;2023-02-03T00:10:39;7.33;;;5.13;;
13040;SDS011;6587;42.728;23.288;2023-02-03T00:13:06;6.57;;;4.30;;
13040;SDS011;6587;42.728;23.288;2023-02-03T00:15:34;5.57;;;4.37;;
13040;SDS011;6587;42.728;23.288;2023-02-03T00:18:02;7.63;;;5.40;;
13040;SDS011;6587;42.728;23.288;2023-02-03T00:20:29;6.07;;;4.03;;
13040;SDS011;6587;42.728;23.288;2023-02-03T00:23:01;6.20;;;4.40;;
13040;SDS011;6587;42.728;23.288;2023-02-03T00:25:32;6.87;;;4.43;;
13040;SDS011;6587;42.728;23.288;2023-02-03T00:27:59;7.73;;;4.63;;
13040;SDS011;6587;42.728;23.288;2023-02-03T00:30:26;5.87;;;4.33;;
13040;SDS011;6587;42.728;23.288;2023-02-03T00:32:53;5.07;;;4.23;;
13040;SDS011;6587;42.728;23.288;2023-02-03T00:35:20;6.97;;;4.80;;
13040;SDS011;6587;42.728;23.288;2023-02-03T00:37:50;7.70;;;4.33;;
13040;SDS011;6587;42.728;23.288;2023-02-03T00:40:17;6.23;;;4.23;;
13040;SDS011;6587;42.728;23.288;2023-02-03T00:42:46;9.80;;;5.53;;
13040;SDS011;6587;42.728;23.288;2023-02-03T00:45:13;7.00;;;4.93;;
13040;SDS011;6587;42.728;23.288;2023-02-03T00:47:40;6.57;;;4.53;;
13040;SDS011;6587;42.728;23.288;2023-02-03T00:50:08;8.90;;;5.13;;
13040;SDS011;6587;42.728;23.288;2023-02-03T00:52:36;8.63;;;5.00;;
13040;SDS011;6587;42.728;23.288;2023-02-03T00:55:04;6.77;;;4.67;;
13040;SDS011;6587;42.728;23.288;2023-02-03T00:57:32;8.07;;;4.93;;
13040;SDS011;6587;42.728;23.288;2023-02-03T01:00:00;6.70;;;4.50;;
13040;SDS011;6587;42.728;23.288;2023-02-03T01:02:27;7.43;;;4.40;;
13040;SDS011;6587;42.728;23.288;2023-02-03T01:04:55;7.10;;;4.10;;
13040;SDS011;6587;42.728;23.288;2023-02-03T01:07:22;7.13;;;4.50;;
13040;SDS011;6587;42.728;23.288;2023-02-03T01:09:49;6.53;;;4.73;;
13040;SDS011;6587;42.728;23.288;2023-02-03T01:12:16;6.50;;;4.00;;
13040;SDS011;6587;42.728;23.288;2023-02-03T01:14:43;4.83;;;3.60;;
13040;SDS011;6587;42.728;23.288;2023-02-03T01:17:11;5.07;;;3.43;;
13040;SDS011;6587;42.728;23.288;2023-02-03T01:19:38;4.93;;;2.87;;
13040;SDS011;6587;42.728;23.288;2023-02-03T01:22:05;4.57;;;3.43;;
13040;SDS011;6587;42.728;23.288;2023-02-03T01:24:32;4.63;;;3.07;;
13040;SDS011;6587;42.728;23.288;2023-02-03T01:26:59;7.13;;;4.30;;
13040;SDS011;6587;42.728;23.288;2023-02-03T01:29:27;5.60;;;3.00;;
13040;SDS011;6587;42.728;23.288;2023-02-03T01:31:54;2.97;;;2.70;;
13040;SDS011;6587;42.728;23.288;2023-02-03T01:34:22;3.00;;;2.67;;
13040;SDS011;6587;42.728;23.288;2023-02-03T01:36:50;4.23;;;3.10;;
13040;SDS011;6587;42.728;23.288;2023-02-03T01:39:17;5.63;;;3.37;;
13040;SDS011;6587;42.728;23.288;2023-02-03T01:41:44;3.70;;;3.10;;
13040;SDS011;6587;42.728;23.288;2023-02-03T01:47:03;4.03;;;2.90;;
13040;SDS011;6587;42.728;23.288;2023-02-03T01:49:38;4.17;;;2.90;;
13040;SDS011;6587;42.728;23.288;2023-02-03T01:52:07;3.13;;;2.67;;
13040;SDS011;6587;42.728;23.288;2023-02-03T01:54:35;3.40;;;2.80;;
13040;SDS011;6587;42.728;23.288;2023-02-03T01:57:10;3.50;;;2.43;;
13040;SDS011;6587;42.728;23.288;2023-02-03T01:59:41;3.93;;;3.00;;
13040;SDS011;6587;42.728;23.288;2023-02-03T02:02:08;3.30;;;2.40;;
13040;SDS011;6587;42.728;23.288;2023-02-03T02:04:42;4.97;;;3.00;;
13040;SDS011;6587;42.728;23.288;2023-02-03T02:07:17;4.53;;;3.10;;
13040;SDS011;6587;42.728;23.288;2023-02-03T02:09:45;4.57;;;3.77;;
13040;SDS011;6587;42.728;23.288;2023-02-03T02:12:14;5.50;;;4.07;;
13040;SDS011;6587;42.728;23.288;2023-02-03T02:14:41;5.37;;;3.73;;
13040;SDS011;6587;42.728;23.288;2023-02-03T02:17:11;5.33;;;2.70;;
13040;SDS011;6587;42.728;23.288;2023-02-03T02:23:02;4.03;;;3.37;;
13040;SDS011;6587;42.728;23.288;2023-02-03T02:28:50;3.97;;;3.30;;
13040;SDS011;6587;42.728;23.288;2023-02-03T02:34:24;5.97;;;4.20;;
13040;SDS011;6587;42.728;23.288;2023-02-03T02:37:06;3.20;;;2.90;;
13040;SDS011;6587;42.728;23.288;2023-02-03T02:39:48;5.67;;;4.37;;
13040;SDS011;6587;42.728;23.288;2023-02-03T02:42:22;5.20;;;3.77;;
13040;SDS011;6587;42.728;23.288;2023-02-03T02:44:57;5.83;;;3.93;;
13040;SDS011;6587;42.728;23.288;2023-02-03T02:47:32;5.40;;;3.63;;
13040;SDS011;6587;42.728;23.288;2023-02-03T02:50:00;4.53;;;3.70;;
13040;SDS011;6587;42.728;23.288;2023-02-03T02:52:31;4.40;;;3.57;;
13040;SDS011;6587;42.728;23.288;2023-02-03T02:55:04;4.50;;;3.63;;
13040;SDS011;6587;42.728;23.288;2023-02-03T02:57:42;3.93;;;3.53;;
13040;SDS011;6587;42.728;23.288;2023-02-03T03:00:17;4.63;;;4.20;;
13040;SDS011;6587;42.728;23.288;2023-02-03T03:02:46;4.87;;;3.83;;
13040;SDS011;6587;42.728;23.288;2023-02-03T03:05:13;3.87;;;3.20;;
13040;SDS011;6587;42.728;23.288;2023-02-03T03:07:47;3.63;;;3.20;;
13040;SDS011;6587;42.728;23.288;2023-02-03T03:10:20;5.20;;;4.00;;
13040;SDS011;6587;42.728;23.288;2023-02-03T03:12:52;3.50;;;3.20;;
13040;SDS011;6587;42.728;23.288;2023-02-03T03:15:26;6.90;;;3.63;;
13040;SDS011;6587;42.728;23.288;2023-02-03T03:17:58;6.07;;;4.30;;
13040;SDS011;6587;42.728;23.288;2023-02-03T03:20:30;5.43;;;3.80;;
13040;SDS011;6587;42.728;23.288;2023-02-03T03:23:00;4.90;;;3.77;;
13040;SDS011;6587;42.728;23.288;2023-02-03T03:25:33;4.03;;;3.53;;
13040;SDS011;6587;42.728;23.288;2023-02-03T03:28:06;4.47;;;4.07;;
13040;SDS011;6587;42.728;23.288;2023-02-03T03:30:39;3.67;;;3.00;;
13040;SDS011;6587;42.728;23.288;2023-02-03T03:33:07;3.53;;;3.13;;
13040;SDS011;6587;42.728;23.288;2023-02-03T03:35:36;4.90;;;3.67;;
13040;SDS011;6587;42.728;23.288;2023-02-03T03:38:10;6.10;;;4.23;;
13040;SDS011;6587;42.728;23.288;2023-02-03T03:40:47;5.43;;;3.30;;
13040;SDS011;6587;42.728;23.288;2023-02-03T03:43:18;3.33;;;3.03;;
13040;SDS011;6587;42.728;23.288;2023-02-03T03:45:48;4.17;;;3.33;;
13040;SDS011;6587;42.728;23.288;2023-02-03T03:48:23;5.83;;;3.30;;
13040;SDS011;6587;42.728;23.288;2023-02-03T03:50:54;9.10;;;4.67;;
13040;SDS011;6587;42.728;23.288;2023-02-03T03:53:25;3.50;;;3.20;;
13040;SDS011;6587;42.728;23.288;2023-02-03T03:55:54;5.37;;;3.60;;
13040;SDS011;6587;42.728;23.288;2023-02-03T03:58:26;4.73;;;3.40;;
13040;SDS011;6587;42.728;23.288;2023-02-03T04:00:56;3.23;;;2.87;;
13040;SDS011;6587;42.728;23.288;2023-02-03T04:03:29;5.10;;;3.53;;
13040;SDS011;6587;42.728;23.288;2023-02-03T04:05:58;5.10;;;4.03;;
13040;SDS011;6587;42.728;23.288;2023-02-03T04:08:25;7.17;;;4.50;;
13040;SDS011;6587;42.728;23.288;2023-02-03T04:10:52;5.40;;;3.63;;
13040;SDS011;6587;42.728;23.288;2023-02-03T04:13:19;4.07;;;3.50;;
13040;SDS011;6587;42.728;23.288;2023-02-03T04:15:46;4.37;;;3.10;;
13040;SDS011;6587;42.728;23.288;2023-02-03T04:18:14;3.53;;;2.67;;
13040;SDS011;6587;42.728;23.288;2023-02-03T04:20:43;3.57;;;3.27;;
13040;SDS011;6587;42.728;23.288;2023-02-03T04:23:10;5.37;;;3.47;;
13040;SDS011;6587;42.728;23.288;2023-02-03T04:25:37;3.57;;;2.50;;
13040;SDS011;6587;42.728;23.288;2023-02-03T04:28:05;4.33;;;3.50;;
13040;SDS011;6587;42.728;23.288;2023-02-03T04:30:32;4.40;;;3.07;;
13040;SDS011;6587;42.728;23.288;2023-02-03T04:32:59;2.93;;;2.70;;
13040;SDS011;6587;42.728;23.288;2023-02-03T04:35:26;3.30;;;2.17;;
13040;SDS011;6587;42.728;23.288;2023-02-03T04:37:54;3.70;;;2.70;;
13040;SDS011;6587;42.728;23.288;2023-02-03T04:40:21;2.80;;;2.60;;
13040;SDS011;6587;42.728;23.288;2023-02-03T04:42:48;3.00;;;2.80;;
13040;SDS011;6587;42.728;23.288;2023-02-03T04:45:16;5.43;;;2.93;;
13040;SDS011;6587;42.728;23.288;2023-02-03T04:47:43;4.67;;;3.20;;
13040;SDS011;6587;42.728;23.288;2023-02-03T04:50:10;3.47;;;3.10;;
13040;SDS011;6587;42.728;23.288;2023-02-03T04:52:36;3.27;;;2.77;;
13040;SDS011;6587;42.728;23.288;2023-02-03T04:55:05;3.70;;;2.80;;
13040;SDS011;6587;42.728;23.288;2023-02-03T04:57:33;4.83;;;2.90;;
13040;SDS011;6587;42.728;23.288;2023-02-03T05:00:00;4.07;;;2.97;;
13040;SDS011;6587;42.728;23.288;2023-02-03T05:02:26;5.37;;;3.10;;
13040;SDS011;6587;42.728;23.288;2023-02-03T05:04:53;3.70;;;3.23;;
13040;SDS011;6587;42.728;23.288;2023-02-03T05:07:21;4.00;;;3.27;;
13040;SDS011;6587;42.728;23.288;2023-02-03T05:09:48;5.07;;;3.40;;
13040;SDS011;6587;42.728;23.288;2023-02-03T05:12:16;6.67;;;3.80;;
13040;SDS011;6587;42.728;23.288;2023-02-03T05:14:43;3.53;;;3.23;;
13040;SDS011;6587;42.728;23.288;2023-02-03T05:17:10;6.20;;;3.53;;
13040;SDS011;6587;42.728;23.288;2023-02-03T05:19:37;5.73;;;4.27;;
13040;SDS011;6587;42.728;23.288;2023-02-03T05:22:04;6.10;;;4.00;;
13040;SDS011;6587;42.728;23.288;2023-02-03T05:24:31;6.63;;;4.63;;
13040;SDS011;6587;42.728;23.288;2023-02-03T05:26:58;4.57;;;4.17;;
13040;SDS011;6587;42.728;23.288;2023-02-03T05:29:26;5.77;;;4.30;;
13040;SDS011;6587;42.728;23.288;2023-02-03T05:31:53;6.10;;;4.67;;
13040;SDS011;6587;42.728;23.288;2023-02-03T05:34:20;6.00;;;4.67;;
13040;SDS011;6587;42.728;23.288;2023-02-03T05:36:46;4.97;;;3.70;;
13040;SDS011;6587;42.728;23.288;2023-02-03T05:39:13;6.10;;;4.40;;
13040;SDS011;6587;42.728;23.288;2023-02-03T05:41:40;7.20;;;4.80;;
13040;SDS011;6587;42.728;23.288;2023-02-03T05:44:18;10.00;;;5.40;;
13040;SDS011;6587;42.728;23.288;2023-02-03T05:46:46;5.77;;;4.70;;
13040;SDS011;6587;42.728;23.288;2023-02-03T05:49:14;7.07;;;4.60;;
13040;SDS011;6587;42.728;23.288;2023-02-03T05:51:41;7.00;;;4.33;;
13040;SDS011;6587;42.728;23.288;2023-02-03T05:54:08;4.73;;;4.03;;
13040;SDS011;6587;42.728;23.288;2023-02-03T05:56:35;6.83;;;5.03;;
13040;SDS011;6587;42.728;23.288;2023-02-03T05:59:03;8.77;;;5.47;;
13040;SDS011;6587;42.728;23.288;2023-02-03T06:01:30;4.43;;;4.03;;
13040;SDS011;6587;42.728;23.288;2023-02-03T06:03:58;4.03;;;3.47;;
13040;SDS011;6587;42.728;23.288;2023-02-03T06:06:26;4.00;;;3.60;;
13040;SDS011;6587;42.728;23.288;2023-02-03T06:08:57;5.00;;;4.03;;
13040;SDS011;6587;42.728;23.288;2023-02-03T06:11:24;5.40;;;4.40;;
13040;SDS011;6587;42.728;23.288;2023-02-03T06:13:52;6.47;;;4.37;;
13040;SDS011;6587;42.728;23.288;2023-02-03T06:16:20;5.60;;;4.70;;
13040;SDS011;6587;42.728;23.288;2023-02-03T06:18:49;4.30;;;3.40;;
13040;SDS011;6587;42.728;23.288;2023-02-03T06:21:17;5.00;;;3.73;;
13040;SDS011;6587;42.728;23.288;2023-02-03T06:23:46;4.33;;;3.83;;
13040;SDS011;6587;42.728;23.288;2023-02-03T06:26:12;4.43;;;3.93;;
13040;SDS011;6587;42.728;23.288;2023-02-03T06:28:39;7.33;;;4.07;;
13040;SDS011;6587;42.728;23.288;2023-02-03T06:31:06;4.33;;;3.93;;
13040;SDS011;6587;42.728;23.288;2023-02-03T06:33:33;5.07;;;4.00;;
13040;SDS011;6587;42.728;23.288;2023-02-03T06:36:00;6.53;;;3.97;;
13040;SDS011;6587;42.728;23.288;2023-02-03T06:38:28;4.90;;;4.03;;
13040;SDS011;6587;42.728;23.288;2023-02-03T06:40:55;4.63;;;3.67;;
13040;SDS011;6587;42.728;23.288;2023-02-03T06:43:22;3.63;;;3.33;;
13040;SDS011;6587;42.728;23.288;2023-02-03T06:45:49;6.17;;;3.67;;
13040;SDS011;6587;42.728;23.288;2023-02-03T06:48:15;6.20;;;3.50;;
13040;SDS011;6587;42.728;23.288;2023-02-03T06:50:43;5.77;;;5.10;;
13040;SDS011;6587;42.728;23.288;2023-02-03T06:53:10;5.00;;;3.97;;
13040;SDS011;6587;42.728;23.288;2023-02-03T06:55:38;19.60;;;12.63;;
13040;SDS011;6587;42.728;23.288;2023-02-03T06:58:05;18.33;;;10.47;;
13040;SDS011;6587;42.728;23.288;2023-02-03T07:00:32;26.80;;;18.00;;
13040;SDS011;6587;42.728;23.288;2023-02-03T07:02:59;7.40;;;5.07;;
13040;SDS011;6587;42.728;23.288;2023-02-03T07:05:26;5.80;;;4.77;;
13040;SDS011;6587;42.728;23.288;2023-02-03T07:07:53;10.50;;;5.90;;
13040;SDS011;6587;42.728;23.288;2023-02-03T07:10:20;5.13;;;4.50;;
13040;SDS011;6587;42.728;23.288;2023-02-03T07:12:48;4.63;;;3.60;;
13040;SDS011;6587;42.728;23.288;2023-02-03T07:15:16;5.10;;;4.27;;
13040;SDS011;6587;42.728;23.288;2023-02-03T07:17:45;6.03;;;4.63;;
13040;SDS011;6587;42.728;23.288;2023-02-03T07:20:19;7.90;;;5.30;;
13040;SDS011;6587;42.728;23.288;2023-02-03T07:22:50;7.00;;;5.83;;
13040;SDS011;6587;42.728;23.288;2023-02-03T07:25:18;4.83;;;3.93;;
13040;SDS011;6587;42.728;23.288;2023-02-03T07:27:45;4.80;;;3.67;;
13040;SDS011;6587;42.728;23.288;2023-02-03T07:30:14;4.60;;;3.90;;
13040;SDS011;6587;42.728;23.288;2023-02-03T07:32:46;7.10;;;3.73;;
13040;SDS011;6587;42.728;23.288;2023-02-03T07:35:13;5.40;;;3.50;;
13040;SDS011;6587;42.728;23.288;2023-02-03T07:37:41;4.80;;;4.20;;
13040;SDS011;6587;42.728;23.288;2023-02-03T07:40:08;4.17;;;3.63;;
13040;SDS011;6587;42.728;23.288;2023-02-03T07:42:37;3.70;;;3.37;;
13040;SDS011;6587;42.728;23.288;2023-02-03T07:45:06;3.73;;;3.30;;
13040;SDS011;6587;42.728;23.288;2023-02-03T07:47:35;3.50;;;2.67;;
13040;SDS011;6587;42.728;23.288;2023-02-03T07:50:02;4.40;;;2.80;;
13040;SDS011;6587;42.728;23.288;2023-02-03T07:52:29;3.30;;;3.00;;
13040;SDS011;6587;42.728;23.288;2023-02-03T07:54:56;4.03;;;3.60;;
13040;SDS011;6587;42.728;23.288;2023-02-03T07:57:23;4.37;;;2.97;;
13040;SDS011;6587;42.728;23.288;2023-02-03T07:59:50;5.10;;;3.43;;
13040;SDS011;6587;42.728;23.288;2023-02-03T08:02:16;4.20;;;3.17;;
13040;SDS011;6587;42.728;23.288;2023-02-03T08:04:45;3.33;;;3.03;;
13040;SDS011;6587;42.728;23.288;2023-02-03T08:07:13;7.10;;;3.60;;
13040;SDS011;6587;42.728;23.288;2023-02-03T08:09:41;3.43;;;2.80;;
13040;SDS011;6587;42.728;23.288;2023-02-03T08:12:08;4.97;;;3.53;;
13040;SDS011;6587;42.728;23.288;2023-02-03T08:14:34;8.27;;;4.63;;
13040;SDS011;6587;42.728;23.288;2023-02-03T08:17:01;6.70;;;3.97;;
13040;SDS011;6587;42.728;23.288;2023-02-03T08:19:28;6.93;;;3.73;;
13040;SDS011;6587;42.728;23.288;2023-02-03T08:21:56;4.43;;;3.07;;
13040;SDS011;6587;42.728;23.288;2023-02-03T08:24:24;4.17;;;2.83;;
13040;SDS011;6587;42.728;23.288;2023-02-03T08:26:51;4.77;;;3.10;;
13040;SDS011;6587;42.728;23.288;2023-02-03T08:29:18;3.87;;;2.60;;
13040;SDS011;6587;42.728;23.288;2023-02-03T08:31:45;3.20;;;2.90;;
13040;SDS011;6587;42.728;23.288;2023-02-03T08:34:12;4.03;;;2.77;;
13040;SDS011;6587;42.728;23.288;2023-02-03T08:36:39;2.53;;;2.33;;
13040;SDS011;6587;42.728;23.288;2023-02-03T08:39:08;4.43;;;2.23;;
13040;SDS011;6587;42.728;23.288;2023-02-03T08:41:35;4.13;;;2.67;;
13040;SDS011;6587;42.728;23.288;2023-02-03T08:44:02;4.23;;;2.87;;
13040;SDS011;6587;42.728;23.288;2023-02-03T08:46:29;2.10;;;1.90;;
13040;SDS011;6587;42.728;23.288;2023-02-03T08:48:56;2.40;;;2.20;;
13040;SDS011;6587;42.728;23.288;2023-02-03T08:51:22;3.13;;;2.43;;
13040;SDS011;6587;42.728;23.288;2023-02-03T08:53:49;4.17;;;2.67;;
13040;SDS011;6587;42.728;23.288;2023-02-03T08:56:18;3.70;;;2.50;;
13040;SDS011;6587;42.728;23.288;2023-02-03T08:58:45;7.80;;;3.47;;
13040;SDS011;6587;42.728;23.288;2023-02-03T09:01:13;3.10;;;2.80;;
13040;SDS011;6587;42.728;23.288;2023-02-03T09:03:40;3.57;;;2.77;;
13040;SDS011;6587;42.728;23.288;2023-02-03T09:06:08;3.50;;;3.00;;
13040;SDS011;6587;42.728;23.288;2023-02-03T09:08:37;4.27;;;2.80;;
13040;SDS011;6587;42.728;23.288;2023-02-03T09:11:07;2.33;;;2.10;;
13040;SDS011;6587;42.728;23.288;2023-02-03T09:13:35;5.30;;;2.77;;
13040;SDS011;6587;42.728;23.288;2023-02-03T09:16:03;2.93;;;2.20;;
13040;SDS011;6587;42.728;23.288;2023-02-03T09:18:31;4.27;;;3.13;;
13040;SDS011;6587;42.728;23.288;2023-02-03T09:21:00;4.93;;;2.87;;
13040;SDS011;6587;42.728;23.288;2023-02-03T09:23:27;2.70;;;2.50;;
13040;SDS011;6587;42.728;23.288;2023-02-03T09:25:54;3.87;;;2.20;;
13040;SDS011;6587;42.728;23.288;2023-02-03T09:28:21;3.70;;;2.03;;
13040;SDS011;6587;42.728;23.288;2023-02-03T09:30:49;3.13;;;2.80;;
13040;SDS011;6587;42.728;23.288;2023-02-03T09:33:16;3.20;;;2.07;;
13040;SDS011;6587;42.728;23.288;2023-02-03T09:35:50;4.37;;;2.20;;
13040;SDS011;6587;42.728;23.288;2023-02-03T09:38:17;4.23;;;2.20;;
13040;SDS011;6587;42.728;23.288;2023-02-03T09:40:44;3.37;;;2.40;;
13040;SDS011;6587;42.728;23.288;2023-02-03T09:43:20;3.23;;;2.63;;
13040;SDS011;6587;42.728;23.288;2023-02-03T09:46:00;4.20;;;3.33;;
13040;SDS011;6587;42.728;23.288;2023-02-03T09:48:33;4.57;;;3.40;;
13040;SDS011;6587;42.728;23.288;2023-02-03T09:51:02;4.17;;;2.67;;
13040;SDS011;6587;42.728;23.288;2023-02-03T09:53:33;5.57;;;2.73;;
13040;SDS011;6587;42.728;23.288;2023-02-03T09:56:10;2.03;;;1.83;;
13040;SDS011;6587;42.728;23.288;2023-02-03T09:58:43;2.50;;;2.30;;
13040;SDS011;6587;42.728;23.288;2023-02-03T10:01:11;5.43;;;2.43;;
13040;SDS011;6587;42.728;23.288;2023-02-03T10:03:41;4.60;;;2.10;;
13040;SDS011;6587;42.728;23.288;2023-02-03T10:06:17;3.53;;;2.60;;
13040;SDS011;6587;42.728;23.288;2023-02-03T10:12:03;2.67;;;2.27;;
13040;SDS011;6587;42.728;23.288;2023-02-03T10:14:45;2.20;;;2.00;;
13040;SDS011;6587;42.728;23.288;2023-02-03T10:17:25;2.83;;;2.50;;
13040;SDS011;6587;42.728;23.288;2023-02-03T10:19:57;5.80;;;3.07;;
13040;SDS011;6587;42.728;23.288;2023-02-03T10:22:28;3.30;;;2.43;;
13040;SDS011;6587;42.728;23.288;2023-02-03T10:25:02;2.80;;;2.37;;
13040;SDS011;6587;42.728;23.288;2023-02-03T10:27:32;2.40;;;2.20;;
13040;SDS011;6587;42.728;23.288;2023-02-03T10:30:03;2.67;;;2.10;;
13040;SDS011;6587;42.728;23.288;2023-02-03T10:32:37;5.27;;;2.40;;
13040;SDS011;6587;42.728;23.288;2023-02-03T10:35:09;3.17;;;2.63;;
13040;SDS011;6587;42.728;23.288;2023-02-03T10:37:37;2.70;;;2.20;;
13040;SDS011;6587;42.728;23.288;2023-02-03T10:40:10;3.30;;;2.70;;
13040;SDS011;6587;42.728;23.288;2023-02-03T10:42:38;5.83;;;2.77;;
13040;SDS011;6587;42.728;23.288;2023-02-03T10:45:23;2.87;;;2.50;;
13040;SDS011;6587;42.728;23.288;2023-02-03T10:47:51;3.07;;;2.23;;
13040;SDS011;6587;42.728;23.288;2023-02-03T10:50:21;4.87;;;2.10;;
13040;SDS011;6587;42.728;23.288;2023-02-03T10:52:58;3.83;;;2.37;;
13040;SDS011;6587;42.728;23.288;2023-02-03T10:55:45;2.57;;;2.30;;
13040;SDS011;6587;42.728;23.288;2023-02-03T10:58:15;2.13;;;1.87;;
13040;SDS011;6587;42.728;23.288;2023-02-03T11:00:49;2.77;;;2.00;;
13040;SDS011;6587;42.728;23.288;2023-02-03T11:03:24;2.80;;;2.00;;
13040;SDS011;6587;42.728;23.288;2023-02-03T11:06:02;4.00;;;2.50;;
13040;SDS011;6587;42.728;23.288;2023-02-03T11:08:31;2.97;;;2.33;;
13040;SDS011;6587;42.728;23.288;2023-02-03T11:11:02;3.60;;;2.30;;
13040;SDS011;6587;42.728;23.288;2023-02-03T11:13:31;4.33;;;2.53;;
13040;SDS011;6587;42.728;23.288;2023-02-03T11:15:58;2.50;;;2.30;;
13040;SDS011;6587;42.728;23.288;2023-02-03T11:18:34;4.10;;;2.67;;
13040;SDS011;6587;42.728;23.288;2023-02-03T11:21:07;2.90;;;1.73;;
13040;SDS011;6587;42.728;23.288;2023-02-03T11:23:40;3.20;;;2.33;;
13040;SDS011;6587;42.728;23.288;2023-02-03T11:26:15;3.60;;;2.33;;
13040;SDS011;6587;42.728;23.288;2023-02-03T11:28:46;4.67;;;2.70;;
13040;SDS011;6587;42.728;23.288;2023-02-03T11:31:16;4.73;;;2.60;;
13040;SDS011;6587;42.728;23.288;2023-02-03T11:33:48;4.33;;;3.10;;
13040;SDS011;6587;42.728;23.288;2023-02-03T11:36:17;3.97;;;2.70;;
13040;SDS011;6587;42.728;23.288;2023-02-03T11:38:44;3.83;;;2.30;;
13040;SDS011;6587;42.728;23.288;2023-02-03T11:41:15;3.93;;;1.93;;
13040;SDS011;6587;42.728;23.288;2023-02-03T11:43:44;4.60;;;2.63;;
13040;SDS011;6587;42.728;23.288;2023-02-03T11:46:11;3.43;;;2.40;;
13040;SDS011;6587;42.728;23.288;2023-02-03T11:48:41;2.90;;;2.40;;
13040;SDS011;6587;42.728;23.288;2023-02-03T11:51:22;1.97;;;1.60;;
13040;SDS011;6587;42.728;23.288;2023-02-03T11:53:58;3.13;;;2.70;;
13040;SDS011;6587;42.728;23.288;2023-02-03T11:56:47;3.63;;;2.00;;
13040;SDS011;6587;42.728;23.288;2023-02-03T12:05:40;3.73;;;2.40;;
13040;SDS011;6587;42.728;23.288;2023-02-03T12:08:32;5.87;;;3.40;;
13040;SDS011;6587;42.728;23.288;2023-02-03T12:11:12;2.13;;;1.93;;
13040;SDS011;6587;42.728;23.288;2023-02-03T12:13:57;3.00;;;1.93;;
13040;SDS011;6587;42.728;23.288;2023-02-03T12:16:38;3.53;;;2.00;;
13040;SDS011;6587;42.728;23.288;2023-02-03T12:19:27;1.90;;;1.73;;
13040;SDS011;6587;42.728;23.288;2023-02-03T12:22:05;2.33;;;2.00;;
13040;SDS011;6587;42.728;23.288;2023-02-03T12:24:42;2.40;;;2.20;;
13040;SDS011;6587;42.728;23.288;2023-02-03T12:27:21;2.13;;;1.97;;
13040;SDS011;6587;42.728;23.288;2023-02-03T12:29:57;3.93;;;2.40;;
13040;SDS011;6587;42.728;23.288;2023-02-03T12:32:30;2.10;;;1.90;;
13040;SDS011;6587;42.728;23.288;2023-02-03T12:35:04;3.53;;;2.20;;
13040;SDS011;6587;42.728;23.288;2023-02-03T12:37:41;2.47;;;1.90;;
13040;SDS011;6587;42.728;23.288;2023-02-03T12:40:15;3.10;;;1.90;;
13040;SDS011;6587;42.728;23.288;2023-02-03T12:42:50;1.90;;;1.63;;
13040;SDS011;6587;42.728;23.288;2023-02-03T12:45:22;2.87;;;1.87;;
13040;SDS011;6587;42.728;23.288;2023-02-03T12:47:54;1.70;;;1.50;;
13040;SDS011;6587;42.728;23.288;2023-02-03T12:50:26;3.73;;;2.10;;
13040;SDS011;6587;42.728;23.288;2023-02-03T12:52:58;3.93;;;2.17;;
13040;SDS011;6587;42.728;23.288;2023-02-03T12:55:33;2.50;;;2.07;;
13040;SDS011;6587;42.728;23.288;2023-02-03T12:58:03;6.00;;;3.83;;
13040;SDS011;6587;42.728;23.288;2023-02-03T13:00:37;6.87;;;3.50;;
13040;SDS011;6587;42.728;23.288;2023-02-03T13:03:15;3.37;;;2.10;;
13040;SDS011;6587;42.728;23.288;2023-02-03T13:06:01;8.93;;;4.30;;
13040;SDS011;6587;42.728;23.288;2023-02-03T13:08:34;2.43;;;2.23;;
13040;SDS011;6587;42.728;23.288;2023-02-03T13:11:12;5.30;;;2.80;;
13040;SDS011;6587;42.728;23.288;2023-02-03T13:13:51;2.63;;;2.30;;
13040;SDS011;6587;42.728;23.288;2023-02-03T13:16:22;6.13;;;3.70;;
13040;SDS011;6587;42.728;23.288;2023-02-03T13:18:55;4.13;;;2.00;;
13040;SDS011;6587;42.728;23.288;2023-02-03T13:21:27;3.20;;;2.87;;
13040;SDS011;6587;42.728;23.288;2023-02-03T13:23:54;2.77;;;2.10;;
13040;SDS011;6587;42.728;23.288;2023-02-03T13:26:37;2.47;;;2.23;;
13040;SDS011;6587;42.728;23.288;2023-02-03T13:29:27;4.87;;;2.60;;
13040;SDS011;6587;42.728;23.288;2023-02-03T13:32:21;4.93;;;2.60;;
13040;SDS011;6587;42.728;23.288;2023-02-03T13:35:05;2.43;;;2.10;;
13040;SDS011;6587;42.728;23.288;2023-02-03T13:37:56;3.07;;;2.20;;
13040;SDS011;6587;42.728;23.288;2023-02-03T13:40:40;3.20;;;2.70;;
13040;SDS011;6587;42.728;23.288;2023-02-03T13:43:16;3.87;;;2.77;;
13040;SDS011;6587;42.728;23.288;2023-02-03T13:45:46;4.23;;;2.40;;
13040;SDS011;6587;42.728;23.288;2023-02-03T13:48:16;4.53;;;2.50;;
13040;SDS011;6587;42.728;23.288;2023-02-03T13:50:46;5.93;;;2.90;;
13040;SDS011;6587;42.728;23.288;2023-02-03T13:53:15;4.03;;;2.90;;
13040;SDS011;6587;42.728;23.288;2023-02-03T13:55:50;3.30;;;2.60;;
13040;SDS011;6587;42.728;23.288;2023-02-03T13:58:22;4.73;;;2.70;;
13040;SDS011;6587;42.728;23.288;2023-02-03T14:01:00;3.17;;;2.40;;
13040;SDS011;6587;42.728;23.288;2023-02-03T14:03:39;4.00;;;3.30;;
13040;SDS011;6587;42.728;23.288;2023-02-03T14:09:21;2.80;;;2.50;;
13040;SDS011;6587;42.728;23.288;2023-02-03T14:11:56;2.50;;;2.17;;
13040;SDS011;6587;42.728;23.288;2023-02-03T14:14:57;3.40;;;2.50;;
13040;SDS011;6587;42.728;23.288;2023-02-03T14:23:41;7.63;;;4.90;;
13040;SDS011;6587;42.728;23.288;2023-02-03T14:26:14;2.43;;;2.23;;
13040;SDS011;6587;42.728;23.288;2023-02-03T14:28:47;3.97;;;2.60;;
13040;SDS011;6587;42.728;23.288;2023-02-03T14:31:18;2.93;;;2.30;;
13040;SDS011;6587;42.728;23.288;2023-02-03T14:33:49;2.87;;;2.57;;
13040;SDS011;6587;42.728;23.288;2023-02-03T14:36:26;5.03;;;3.67;;
13040;SDS011;6587;42.728;23.288;2023-02-03T14:38:54;5.70;;;3.17;;
13040;SDS011;6587;42.728;23.288;2023-02-03T14:41:24;3.93;;;3.17;;
13040;SDS011;6587;42.728;23.288;2023-02-03T14:43:57;6.57;;;3.87;;
13040;SDS011;6587;42.728;23.288;2023-02-03T14:46:41;10.63;;;5.23;;
13040;SDS011;6587;42.728;23.288;2023-02-03T14:49:26;4.70;;;3.73;;
13040;SDS011;6587;42.728;23.288;2023-02-03T14:55:02;15.57;;;7.13;;
13040;SDS011;6587;42.728;23.288;2023-02-03T14:57:50;8.80;;;5.10;;
13040;SDS011;6587;42.728;23.288;2023-02-03T15:00:30;11.67;;;5.73;;
13040;SDS011;6587;42.728;23.288;2023-02-03T15:05:58;8.87;;;4.10;;
13040;SDS011;6587;42.728;23.288;2023-02-03T15:08:30;7.47;;;3.60;;
13040;SDS011;6587;42.728;23.288;2023-02-03T15:11:00;4.33;;;3.27;;
13040;SDS011;6587;42.728;23.288;2023-02-03T15:13:41;2.53;;;2.33;;
13040;SDS011;6587;42.728;23.288;2023-02-03T15:16:09;5.90;;;2.90;;
13040;SDS011;6587;42.728;23.288;2023-02-03T15:18:42;4.90;;;3.17;;
13040;SDS011;6587;42.728;23.288;2023-02-03T15:21:13;12.57;;;5.83;;
13040;SDS011;6587;42.728;23.288;2023-02-03T15:23:42;16.10;;;7.20;;
13040;SDS011;6587;42.728;23.288;2023-02-03T15:26:12;22.57;;;8.93;;
13040;SDS011;6587;42.728;23.288;2023-02-03T15:28:41;6.97;;;3.70;;
13040;SDS011;6587;42.728;23.288;2023-02-03T15:31:11;7.93;;;3.67;;
13040;SDS011;6587;42.728;23.288;2023-02-03T15:33:44;4.80;;;3.60;;
13040;SDS011;6587;42.728;23.288;2023-02-03T15:36:14;4.90;;;3.20;;
13040;SDS011;6587;42.728;23.288;2023-02-03T15:38:47;7.13;;;3.30;;
13040;SDS011;6587;42.728;23.288;2023-02-03T15:41:21;2.70;;;2.40;;
13040;SDS011;6587;42.728;23.288;2023-02-03T15:43:51;4.43;;;3.03;;
13040;SDS011;6587;42.728;23.288;2023-02-03T15:46:24;5.07;;;3.70;;